Time;durP1;ratioP1;P1;durP2;ratioP2;P2;SDS_P1;SDS_P2;PMS_P1;PMS_P2;Temp;Humidity;BMP_temperature;BMP_pressure;BME280_temperature;BME280_humidity;BME280_pressure;Samples;Min_cycle;Max_cycle;Signal;HPM_P1;HPM_P2
2021/10/02 00:33:58;;;;;;;7.65;3.03;;;;;;;10.27;86.71;100763.00;5066134;28;20114;-67
2021/10/02 00:44:47;;;;;;;9.10;3.15;;;;;;;10.17;87.43;100751.25;5004793;28;19976;-68
2021/10/02 00:47:17;;;;;;;8.75;2.63;;;;;;;10.18;87.78;100752.94;4991172;28;20160;-68
2021/10/02 00:49:46;;;;;;;3.92;2.80;;;;;;;10.13;87.82;100754.06;5036814;28;20044;-68
2021/10/02 00:52:15;;;;;;;7.78;3.75;;;;;;;10.18;88.31;100748.56;5069022;28;20474;-67
2021/10/02 00:54:43;;;;;;;6.93;2.97;;;;;;;10.22;87.78;100749.22;5063955;28;20127;-68
2021/10/02 00:57:10;;;;;;;6.60;3.40;;;;;;;10.22;87.77;100747.44;5065528;28;20135;-67
2021/10/02 00:59:38;;;;;;;7.53;3.00;;;;;;;10.25;88.05;100736.78;5063064;28;20066;-67
2021/10/02 01:02:11;;;;;;;5.65;3.22;;;;;;;10.23;88.03;100732.50;5070724;28;20077;-68
2021/10/02 01:04:50;;;;;;;6.25;2.63;;;;;;;10.30;88.02;100733.88;5065089;28;20409;-67
2021/10/02 01:07:40;;;;;;;9.52;3.25;;;;;;;10.36;87.67;100728.28;5064788;28;20076;-66
2021/10/02 01:10:16;;;;;;;7.57;3.03;;;;;;;10.31;87.54;100723.28;5060572;28;20067;-67
2021/10/02 01:13:02;;;;;;;6.13;2.95;;;;;;;10.29;88.46;100719.88;5058862;28;20053;-66
2021/10/02 01:15:53;;;;;;;3.93;2.77;;;;;;;10.29;88.07;100714.63;5066176;28;20068;-66
2021/10/02 01:18:35;;;;;;;5.60;2.88;;;;;;;10.26;88.33;100720.03;5061989;28;20461;-68
2021/10/02 01:21:34;;;;;;;6.65;3.47;;;;;;;10.27;88.64;100718.28;5042050;28;20136;-68
2021/10/02 01:24:30;;;;;;;6.50;2.78;;;;;;;10.22;88.92;100717.63;5056059;28;20486;-68
2021/10/02 01:27:07;;;;;;;5.00;2.92;;;;;;;10.26;88.35;100716.56;5058315;28;20056;-68
2021/10/02 01:29:36;;;;;;;5.25;3.25;;;;;;;10.22;88.65;100709.75;5059809;28;20086;-67
2021/10/02 01:32:17;;;;;;;5.22;3.38;;;;;;;10.24;89.19;100708.78;5069171;28;20123;-68
2021/10/02 01:35:04;;;;;;;10.75;3.58;;;;;;;10.24;89.38;100710.53;5056348;28;20068;-68
2021/10/02 01:37:55;;;;;;;8.85;3.45;;;;;;;10.22;89.23;100715.00;5066010;28;20091;-67
2021/10/02 01:48:46;;;;;;;5.82;3.20;;;;;;;10.21;89.45;100702.78;5084708;28;20063;-68
2021/10/02 01:51:15;;;;;;;5.78;2.97;;;;;;;10.15;90.45;100693.47;5051464;28;20049;-69
2021/10/02 01:53:43;;;;;;;6.53;2.72;;;;;;;10.08;90.25;100692.94;5067000;28;20530;-68
2021/10/02 01:56:14;;;;;;;6.93;3.10;;;;;;;10.06;90.41;100694.81;5063268;28;20071;-68
2021/10/02 01:58:42;;;;;;;7.10;3.15;;;;;;;10.02;90.66;100690.66;5047430;28;20077;-66
2021/10/02 02:01:10;;;;;;;7.70;3.30;;;;;;;9.97;91.05;100695.34;5065770;28;20509;-67
2021/10/02 02:03:39;;;;;;;6.95;3.20;;;;;;;10.11;90.88;100689.31;5063616;28;20048;-67
2021/10/02 02:06:07;;;;;;;7.05;3.38;;;;;;;10.11;90.81;100681.41;5067939;28;20098;-67
2021/10/02 02:08:34;;;;;;;5.90;3.25;;;;;;;10.13;90.40;100684.78;5067005;28;20179;-66
2021/10/02 02:11:24;;;;;;;7.10;3.47;;;;;;;10.03;91.21;100681.84;5068550;28;20044;-67
2021/10/02 02:13:52;;;;;;;7.03;3.33;;;;;;;10.02;91.52;100681.94;5063691;28;20470;-66
2021/10/02 02:16:20;;;;;;;7.10;3.40;;;;;;;9.89;92.32;100687.84;5058497;28;20051;-66
2021/10/02 02:18:48;;;;;;;6.72;3.60;;;;;;;9.85;92.59;100682.84;5065874;28;20044;-66
2021/10/02 02:21:15;;;;;;;8.45;3.28;;;;;;;9.92;92.33;100678.13;5058713;28;20553;-68
2021/10/02 02:23:43;;;;;;;6.03;3.40;;;;;;;9.87;93.00;100675.75;5047798;28;20044;-67
2021/10/02 02:26:10;;;;;;;8.05;2.97;;;;;;;9.94;92.49;100678.88;5067164;28;20048;-67
2021/10/02 02:28:39;;;;;;;5.88;2.90;;;;;;;9.94;92.92;100669.19;5045360;28;20041;-67
2021/10/02 02:31:07;;;;;;;6.78;3.40;;;;;;;9.96;92.26;100666.50;5047756;28;20151;-67
2021/10/02 02:33:35;;;;;;;4.20;3.22;;;;;;;10.05;91.77;100671.25;5054319;28;20127;-68
2021/10/02 02:36:04;;;;;;;6.97;3.30;;;;;;;9.94;92.67;100674.47;5052813;28;20056;-68
2021/10/02 02:38:31;;;;;;;8.52;3.67;;;;;;;9.98;92.76;100673.34;5059479;28;20802;-67
2021/10/02 02:40:59;;;;;;;7.43;3.60;;;;;;;10.04;92.42;100680.94;5035273;28;20570;-69
2021/10/02 02:43:32;;;;;;;5.35;3.67;;;;;;;9.95;92.85;100664.78;5064049;28;20082;-66
2021/10/02 02:46:07;;;;;;;6.13;3.33;;;;;;;9.97;93.17;100665.56;5066545;28;20128;-68
2021/10/02 02:48:39;;;;;;;5.50;3.38;;;;;;;10.05;92.32;100669.47;5061114;28;20075;-68
2021/10/02 02:51:13;;;;;;;7.32;3.22;;;;;;;10.10;92.38;100666.56;5059229;28;20074;-68
2021/10/02 02:53:59;;;;;;;8.25;3.65;;;;;;;10.13;92.62;100672.53;5064373;28;20052;-67
2021/10/02 02:56:31;;;;;;;6.45;3.47;;;;;;;10.11;92.48;100669.09;5063217;28;20117;-66
2021/10/02 02:59:02;;;;;;;6.22;3.10;;;;;;;10.09;92.62;100664.88;5061953;28;20061;-69
2021/10/02 03:01:31;;;;;;;4.50;3.25;;;;;;;10.11;93.21;100673.53;5049695;28;20156;-66
2021/10/02 03:03:59;;;;;;;12.43;3.65;;;;;;;10.13;92.37;100669.88;5042438;28;20044;-68
2021/10/02 03:06:26;;;;;;;4.93;3.13;;;;;;;10.14;92.78;100666.31;5044783;28;20064;-67
2021/10/02 03:08:55;;;;;;;6.25;3.15;;;;;;;10.15;92.42;100657.47;5053919;28;20056;-69
2021/10/02 03:11:24;;;;;;;5.70;3.15;;;;;;;10.09;93.08;100660.47;5048778;28;20053;-67
2021/10/02 03:13:55;;;;;;;4.65;3.08;;;;;;;10.07;93.18;100666.75;5065002;28;20055;-67
2021/10/02 03:16:26;;;;;;;6.53;3.30;;;;;;;10.07;93.39;100666.75;5057380;28;20131;-68
2021/10/02 03:18:56;;;;;;;6.53;3.53;;;;;;;10.13;93.23;100664.63;5067099;28;20066;-68
2021/10/02 03:21:24;;;;;;;8.05;3.60;;;;;;;10.22;93.20;100663.25;5059773;28;20076;-67
2021/10/02 03:23:51;;;;;;;6.20;3.60;;;;;;;10.24;92.12;100658.78;5055608;28;20053;-67
2021/10/02 03:26:19;;;;;;;6.57;2.70;;;;;;;10.18;92.73;100663.50;5062544;28;20473;-67
2021/10/02 03:28:48;;;;;;;5.65;2.92;;;;;;;10.27;91.85;100665.66;5065021;28;20051;-67
2021/10/02 03:31:17;;;;;;;6.50;3.55;;;;;;;10.22;92.27;100657.13;5056677;28;20136;-65
2021/10/02 03:33:45;;;;;;;6.43;3.60;;;;;;;10.28;92.13;100656.81;5069277;28;20055;-66
2021/10/02 03:36:13;;;;;;;5.63;3.55;;;;;;;10.33;92.34;100658.25;5062230;28;20058;-67
2021/10/02 03:38:41;;;;;;;7.90;3.50;;;;;;;10.31;92.03;100660.13;5064306;28;20051;-68
2021/10/02 03:41:09;;;;;;;4.38;3.28;;;;;;;10.30;91.78;100660.19;5067828;28;20131;-67
2021/10/02 03:43:37;;;;;;;6.50;3.45;;;;;;;10.27;91.75;100657.78;5053951;28;20884;-68
2021/10/02 03:46:05;;;;;;;8.93;3.65;;;;;;;10.37;91.39;100664.19;5069142;28;20418;-67
2021/10/02 03:48:32;;;;;;;4.18;3.20;;;;;;;10.30;92.17;100663.69;5064149;28;21462;-69
2021/10/02 03:50:59;;;;;;;8.57;3.67;;;;;;;10.27;92.31;100668.28;5077824;28;20139;-67
2021/10/02 03:53:28;;;;;;;7.90;3.45;;;;;;;10.39;91.16;100663.16;5060011;28;20160;-68
2021/10/02 03:55:56;;;;;;;4.50;3.55;;;;;;;10.43;91.22;100663.81;5060930;28;20490;-67
2021/10/02 03:58:24;;;;;;;7.30;4.15;;;;;;;10.31;91.97;100662.78;5068687;28;20455;-68
2021/10/02 04:00:51;;;;;;;10.27;3.50;;;;;;;10.35;91.73;100666.03;5059822;28;20052;-69
2021/10/02 04:03:18;;;;;;;5.53;3.72;;;;;;;10.30;91.74;100671.56;5069881;28;20072;-69
2021/10/02 04:05:45;;;;;;;6.30;3.28;;;;;;;10.27;92.38;100668.28;5061170;28;20047;-68
2021/10/02 04:08:13;;;;;;;7.40;3.58;;;;;;;10.30;92.32;100663.69;5065135;28;20088;-68
2021/10/02 04:10:40;;;;;;;6.72;3.75;;;;;;;10.47;91.51;100664.50;5066872;28;20094;-67
2021/10/02 04:13:07;;;;;;;5.53;3.80;;;;;;;10.49;91.10;100652.97;5070168;28;20078;-68
2021/10/02 04:15:34;;;;;;;7.13;4.28;;;;;;;10.42;91.71;100658.66;5065213;28;20136;-69
2021/10/02 04:18:03;;;;;;;8.50;3.75;;;;;;;10.44;91.54;100660.25;5064969;28;20563;-67
2021/10/02 04:20:30;;;;;;;7.70;3.70;;;;;;;10.51;91.08;100656.34;5062852;28;20055;-66
2021/10/02 04:22:57;;;;;;;4.25;2.97;;;;;;;10.56;91.07;100656.91;5066866;28;20053;-68
2021/10/02 04:25:24;;;;;;;6.80;3.65;;;;;;;10.56;91.06;100662.19;5067876;28;20052;-68
2021/10/02 04:27:52;;;;;;;9.32;3.30;;;;;;;10.54;91.12;100657.97;5062217;28;20135;-67
2021/10/02 04:30:19;;;;;;;15.80;3.78;;;;;;;10.56;91.51;100656.06;5052345;28;20091;-67
2021/10/02 04:32:46;;;;;;;6.03;4.15;;;;;;;10.55;91.18;100651.75;5069956;28;20402;-68
2021/10/02 04:35:13;;;;;;;5.22;3.50;;;;;;;10.50;91.46;100659.91;5062488;28;20652;-66
2021/10/02 04:37:40;;;;;;;10.00;4.50;;;;;;;10.33;93.17;100658.25;5071344;28;20566;-68
2021/10/02 04:40:08;;;;;;;7.07;3.30;;;;;;;10.52;91.68;100660.66;5058737;28;20171;-67
2021/10/02 04:42:35;;;;;;;8.95;3.97;;;;;;;10.58;91.32;100665.59;5068524;28;20044;-69
2021/10/02 04:45:03;;;;;;;7.80;3.70;;;;;;;10.58;91.87;100664.72;5063920;28;20058;-68
2021/10/02 04:47:30;;;;;;;6.22;3.83;;;;;;;10.65;91.46;100664.28;5071721;22;20049;-65
2021/10/02 04:49:57;;;;;;;8.20;3.85;;;;;;;10.74;91.01;100664.69;5046742;28;20528;-64
2021/10/02 04:52:24;;;;;;;6.55;3.72;;;;;;;10.70;91.18;100663.16;5037330;28;20079;-68
2021/10/02 04:54:52;;;;;;;9.15;4.20;;;;;;;10.78;90.76;100659.16;5054732;28;20574;-64
2021/10/02 04:57:20;;;;;;;7.60;3.78;;;;;;;10.64;91.57;100667.00;5057833;28;20076;-65
2021/10/02 04:59:47;;;;;;;11.18;4.63;;;;;;;10.68;91.57;100665.06;5047965;28;20132;-64
2021/10/02 05:02:39;;;;;;;6.70;4.10;;;;;;;10.78;90.54;100666.19;5048938;28;20279;-64
2021/10/02 05:05:07;;;;;;;8.55;3.67;;;;;;;10.85;90.73;100660.50;5029414;28;20049;-64
2021/10/02 05:07:34;;;;;;;8.23;4.43;;;;;;;10.86;90.17;100667.44;5055356;28;20128;-67
2021/10/02 05:10:01;;;;;;;5.32;3.30;;;;;;;10.78;91.17;100668.84;5030197;28;20460;-64
2021/10/02 05:12:29;;;;;;;8.70;3.65;;;;;;;10.84;91.06;100666.66;5030401;28;20052;-64
2021/10/02 05:14:56;;;;;;;6.00;3.60;;;;;;;10.77;91.53;100672.41;5048691;28;20578;-65
2021/10/02 05:18:55;;;;;;;11.38;4.22;;;;;;;10.75;91.58;100666.38;5077182;27;20543;-67
2021/10/02 05:21:22;;;;;;;6.13;3.75;;;;;;;10.86;91.19;100661.34;5065722;28;20064;-64
2021/10/02 05:23:49;;;;;;;9.98;3.20;;;;;;;10.81;90.99;100663.41;5049014;28;20054;-63
2021/10/02 05:26:16;;;;;;;7.65;4.35;;;;;;;10.78;91.63;100660.94;5070247;28;20059;-63
2021/10/02 05:28:43;;;;;;;6.93;3.90;;;;;;;10.83;91.35;100659.72;5065798;28;20068;-64
2021/10/02 05:31:11;;;;;;;5.78;3.50;;;;;;;10.83;91.28;100657.09;5067154;28;20052;-64
2021/10/02 05:33:41;;;;;;;5.93;4.07;;;;;;;10.87;91.33;100650.69;5073858;28;20083;-65
2021/10/02 05:36:09;;;;;;;5.78;4.25;;;;;;;10.99;90.35;100658.81;5067290;28;20136;-66
2021/10/02 05:38:36;;;;;;;9.90;5.10;;;;;;;11.02;90.38;100650.72;5064441;28;20037;-63
2021/10/02 05:41:04;;;;;;;10.55;3.80;;;;;;;11.10;90.15;100654.56;5071719;28;20575;-63
2021/10/02 05:43:32;;;;;;;9.20;3.63;;;;;;;11.21;89.34;100656.53;5065918;28;20075;-65
2021/10/02 05:45:59;;;;;;;8.63;3.90;;;;;;;11.27;88.93;100655.34;5061079;28;20132;-64
2021/10/02 05:48:38;;;;;;;13.25;3.80;;;;;;;11.28;88.69;100657.88;5067797;28;20040;-64
2021/10/02 05:51:06;;;;;;;7.03;4.03;;;;;;;11.25;89.05;100651.94;5068764;28;20045;-64
2021/10/02 05:53:34;;;;;;;6.57;4.10;;;;;;;11.22;89.24;100662.69;5064916;28;20059;-65
2021/10/02 05:56:10;;;;;;;12.70;4.00;;;;;;;11.36;88.41;100678.50;5064803;28;20056;-65
2021/10/02 05:58:37;;;;;;;5.32;4.00;;;;;;;11.36;88.63;100681.13;5063813;28;20025;-63
2021/10/02 06:01:05;;;;;;;6.97;3.90;;;;;;;11.29;89.43;100685.06;5068887;28;20048;-63
2021/10/02 06:03:32;;;;;;;7.57;4.32;;;;;;;11.31;89.35;100678.78;5069117;28;20082;-64
2021/10/02 06:06:00;;;;;;;11.57;4.10;;;;;;;11.44;88.74;100684.16;5068094;28;20128;-66
2021/10/02 06:08:27;;;;;;;6.68;3.95;;;;;;;11.47;88.31;100686.59;5055687;28;20080;-64
2021/10/02 06:10:58;;;;;;;7.60;4.28;;;;;;;11.47;88.14;100691.84;5064039;28;20080;-67
2021/10/02 06:13:25;;;;;;;7.13;4.10;;;;;;;11.38;88.87;100687.16;5065116;28;20040;-63
2021/10/02 06:15:53;;;;;;;5.43;4.30;;;;;;;11.56;87.67;100696.56;5063366;28;20554;-68
2021/10/02 06:18:20;;;;;;;6.43;4.03;;;;;;;11.56;87.92;100696.56;5065026;28;20037;-68
2021/10/02 06:20:48;;;;;;;8.05;4.55;;;;;;;11.49;88.12;100699.69;5046888;28;20057;-67
2021/10/02 06:23:15;;;;;;;10.38;4.25;;;;;;;11.59;87.80;100703.44;5066520;28;20148;-64
2021/10/02 06:25:43;;;;;;;8.88;4.20;;;;;;;11.63;87.32;100703.16;5047538;28;20041;-66
2021/10/02 06:28:10;;;;;;;6.35;4.35;;;;;;;11.53;88.20;100694.13;5066153;28;20037;-64
2021/10/02 06:30:37;;;;;;;8.77;4.30;;;;;;;11.50;88.48;100686.41;5050231;28;20144;-68
2021/10/02 06:33:05;;;;;;;8.75;3.75;;;;;;;11.59;88.18;100692.91;5048651;28;20056;-65
2021/10/02 06:35:32;;;;;;;7.25;3.97;;;;;;;11.68;87.36;100696.75;5042342;28;20095;-66
2021/10/02 06:37:59;;;;;;;6.10;3.88;;;;;;;11.64;87.97;100693.47;5048102;28;20116;-64
2021/10/02 06:40:26;;;;;;;7.20;4.00;;;;;;;11.70;87.52;100684.31;5056980;28;20087;-65
2021/10/02 06:42:54;;;;;;;8.10;3.88;;;;;;;11.69;87.30;100687.91;5036868;28;20493;-67
2021/10/02 06:45:21;;;;;;;8.38;4.53;;;;;;;11.73;86.90;100703.44;5051391;28;20048;-66
2021/10/02 06:47:49;;;;;;;9.93;4.43;;;;;;;11.52;87.81;100702.97;5053304;28;20048;-65
2021/10/02 06:50:16;;;;;;;11.38;4.10;;;;;;;11.66;88.86;100705.63;5057078;28;20147;-63
2021/10/02 06:52:44;;;;;;;7.18;4.40;;;;;;;11.89;87.74;100696.28;5054090;28;20049;-63
2021/10/02 06:55:11;;;;;;;7.38;4.15;;;;;;;12.03;86.53;100700.69;5033299;28;20037;-63
2021/10/02 06:57:43;;;;;;;5.85;3.83;;;;;;;12.22;85.06;100691.59;5049841;28;20048;-65
2021/10/02 07:00:11;;;;;;;10.07;4.43;;;;;;;12.27;84.42;100687.69;5053847;28;20053;-64
2021/10/02 07:02:42;;;;;;;7.50;4.43;;;;;;;12.63;82.62;100691.53;5051677;28;20064;-67
2021/10/02 07:05:10;;;;;;;6.70;4.47;;;;;;;13.29;80.09;100689.72;5049522;28;20057;-65
2021/10/02 07:07:39;;;;;;;6.70;3.85;;;;;;;13.93;76.43;100696.63;5037331;28;20445;-67
2021/10/02 07:10:10;;;;;;;6.20;3.40;;;;;;;13.86;75.75;100705.94;5056305;28;20095;-66
2021/10/02 07:12:38;;;;;;;7.20;3.85;;;;;;;13.86;75.96;100695.34;5045846;28;20125;-66
2021/10/02 07:15:06;;;;;;;5.65;3.85;;;;;;;13.40;77.87;100687.19;5031234;28;20053;-64
2021/10/02 07:17:33;;;;;;;5.75;3.80;;;;;;;13.59;77.57;100705.25;5050461;28;20049;-64
2021/10/02 07:20:01;;;;;;;6.55;3.88;;;;;;;13.79;76.67;100696.75;5049881;28;20044;-64
2021/10/02 07:22:28;;;;;;;10.60;3.55;;;;;;;14.18;74.85;100695.69;5058978;28;20049;-67
2021/10/02 07:24:55;;;;;;;6.00;3.63;;;;;;;14.79;71.81;100703.56;5050810;28;20171;-67
2021/10/02 07:27:23;;;;;;;9.35;4.40;;;;;;;15.57;69.22;100686.09;5053895;28;21060;-66
2021/10/02 07:29:50;;;;;;;9.57;3.65;;;;;;;16.38;64.91;100685.72;5048949;28;20139;-67
2021/10/02 07:32:17;;;;;;;8.93;4.00;;;;;;;17.04;62.36;100682.91;5051601;28;20049;-67
2021/10/02 07:34:44;;;;;;;10.77;3.50;;;;;;;16.33;64.11;100681.78;5029593;28;20560;-66
2021/10/02 07:37:11;;;;;;;8.07;3.60;;;;;;;15.50;67.33;100684.91;5045421;28;20095;-67
2021/10/02 07:39:39;;;;;;;8.05;3.47;;;;;;;15.00;69.85;100676.41;5051693;28;20596;-66
2021/10/02 07:42:06;;;;;;;9.25;3.50;;;;;;;14.81;70.33;100676.94;5049676;28;20084;-66
2021/10/02 07:44:34;;;;;;;7.30;3.72;;;;;;;14.69;71.18;100674.28;5052725;28;20152;-65
2021/10/02 07:47:02;;;;;;;7.03;4.28;;;;;;;14.64;71.61;100679.09;5050765;28;20094;-66
2021/10/02 07:49:33;;;;;;;8.45;3.70;;;;;;;14.86;70.63;100675.66;5050334;28;20053;-66
2021/10/02 07:52:03;;;;;;;13.68;4.22;;;;;;;16.04;67.27;100666.41;5047998;28;20052;-66
2021/10/02 07:54:31;;;;;;;9.10;3.92;;;;;;;16.58;64.25;100667.31;5044294;28;20052;-66
2021/10/02 07:56:59;;;;;;;7.63;3.55;;;;;;;16.93;62.62;100669.66;5050887;28;20464;-65
2021/10/02 07:59:27;;;;;;;9.80;3.78;;;;;;;17.16;61.60;100678.38;5049746;28;20044;-66
2021/10/02 08:01:57;;;;;;;13.88;4.50;;;;;;;17.25;61.48;100676.75;5045719;28;20049;-66
2021/10/02 08:04:24;;;;;;;8.57;4.20;;;;;;;17.40;60.63;100670.09;5051041;28;20127;-67
2021/10/02 08:06:53;;;;;;;8.65;4.00;;;;;;;16.70;62.72;100674.25;5032360;28;20080;-67
2021/10/02 08:09:20;;;;;;;10.93;4.53;;;;;;;16.27;64.89;100676.97;5051595;28;20176;-67
2021/10/02 08:11:48;;;;;;;10.00;5.13;;;;;;;16.04;66.12;100685.00;5053673;28;20076;-66
2021/10/02 08:14:17;;;;;;;9.38;3.53;;;;;;;15.90;66.37;100677.31;5044102;28;20057;-67
2021/10/02 08:16:46;;;;;;;9.43;3.85;;;;;;;16.06;66.10;100675.09;5039719;28;20059;-67
2021/10/02 08:19:16;;;;;;;9.98;4.00;;;;;;;16.53;64.75;100678.31;5049469;28;20048;-67
2021/10/02 08:21:43;;;;;;;11.90;4.45;;;;;;;17.35;62.56;100685.63;5052401;28;20140;-67
2021/10/02 08:24:10;;;;;;;6.35;3.58;;;;;;;20.19;53.18;100675.31;5044582;28;20045;-68
2021/10/02 08:26:38;;;;;;;7.40;3.33;;;;;;;22.32;47.41;100669.47;5054141;28;20080;-68
2021/10/02 08:29:06;;;;;;;10.10;3.58;;;;;;;21.00;49.63;100677.06;5029828;28;20053;-68
2021/10/02 08:31:34;;;;;;;8.88;3.15;;;;;;;19.97;52.05;100675.75;5047117;28;20080;-67
2021/10/02 08:34:22;;;;;;;4.60;3.30;;;;;;;19.91;52.51;100669.19;5047722;28;20045;-66
2021/10/02 08:36:49;;;;;;;6.47;2.88;;;;;;;21.10;48.64;100660.88;5054955;28;20064;-67
2021/10/02 08:39:17;;;;;;;6.30;3.60;;;;;;;22.00;46.96;100652.28;5050569;28;20053;-65
2021/10/02 08:41:45;;;;;;;5.57;2.60;;;;;;;21.43;47.79;100653.91;5045011;28;20495;-65
2021/10/02 08:44:20;;;;;;;6.78;3.42;;;;;;;22.82;44.92;100649.69;5052411;28;20065;-66
2021/10/02 08:46:50;;;;;;;4.55;2.90;;;;;;;23.50;42.87;100641.16;5032508;28;20132;-66
2021/10/02 08:49:30;;;;;;;6.30;3.30;;;;;;;23.56;42.38;100653.06;5044264;28;20075;-66
2021/10/02 08:52:03;;;;;;;5.10;2.90;;;;;;;21.39;46.67;100665.94;5044463;28;20132;-67
2021/10/02 08:54:39;;;;;;;6.15;2.88;;;;;;;21.02;48.47;100669.69;5049311;28;20063;-66
2021/10/02 08:57:33;;;;;;;4.57;3.05;;;;;;;20.39;50.47;100667.97;5051576;28;20045;-65
2021/10/02 09:00:01;;;;;;;6.25;3.20;;;;;;;18.82;54.64;100676.00;5042849;28;20056;-66
2021/10/02 09:02:28;;;;;;;4.85;2.58;;;;;;;18.04;58.08;100676.91;5057216;28;20057;-65
2021/10/02 09:04:56;;;;;;;10.13;3.33;;;;;;;17.39;60.38;100665.75;5044331;28;20160;-67
2021/10/02 09:07:23;;;;;;;4.45;2.95;;;;;;;17.40;61.51;100659.44;5054482;28;20071;-64
2021/10/02 09:10:03;;;;;;;5.85;2.92;;;;;;;17.57;60.63;100660.63;5049905;28;20159;-67
2021/10/02 09:12:32;;;;;;;4.03;2.80;;;;;;;17.40;61.17;100664.75;5031715;28;20068;-66
2021/10/02 09:15:02;;;;;;;8.30;2.65;;;;;;;17.50;61.04;100670.13;5042566;28;20540;-69
2021/10/02 09:17:30;;;;;;;5.80;3.00;;;;;;;17.62;60.82;100666.41;5049862;28;20080;-68
2021/10/02 09:19:58;;;;;;;6.43;3.50;;;;;;;17.70;60.73;100659.41;5046440;28;20598;-62
2021/10/02 09:22:26;;;;;;;6.85;2.95;;;;;;;17.53;61.13;100656.56;5048172;28;20324;-69
2021/10/02 09:24:56;;;;;;;8.48;3.25;;;;;;;17.60;61.37;100655.03;5053502;28;20060;-68
2021/10/02 09:27:29;;;;;;;8.82;3.72;;;;;;;17.66;60.93;100657.16;5041453;28;20048;-68
2021/10/02 09:30:00;;;;;;;9.10;2.92;;;;;;;17.67;61.66;100649.03;5051045;28;20060;-68
2021/10/02 09:32:34;;;;;;;5.05;2.53;;;;;;;17.74;60.62;100653.84;5052477;28;20053;-67
2021/10/02 09:35:13;;;;;;;6.40;3.00;;;;;;;17.62;61.37;100664.56;5048527;28;20064;-67
2021/10/02 09:37:42;;;;;;;6.55;2.60;;;;;;;17.72;60.91;100670.75;5049553;28;20041;-67
2021/10/02 09:40:17;;;;;;;6.15;2.30;;;;;;;17.72;60.48;100670.75;5046850;28;20052;-67
2021/10/02 09:42:50;;;;;;;2.25;1.90;;;;;;;17.68;60.79;100673.84;5046167;28;20610;-66
2021/10/02 09:45:19;;;;;;;4.78;2.47;;;;;;;17.73;60.54;100660.94;5053155;28;20430;-66
2021/10/02 09:47:52;;;;;;;7.35;2.65;;;;;;;17.90;59.92;100662.16;5047879;28;20080;-64
2021/10/02 09:50:22;;;;;;;3.25;1.92;;;;;;;17.83;59.90;100672.53;5044298;28;20105;-64
2021/10/02 09:53:00;;;;;;;3.50;2.20;;;;;;;18.00;59.72;100672.81;5049765;28;20063;-65
2021/10/02 09:55:29;;;;;;;3.40;1.98;;;;;;;17.91;59.16;100666.50;5051266;28;20053;-64
2021/10/02 09:58:06;;;;;;;7.07;2.25;;;;;;;17.93;59.13;100667.22;5049535;28;20092;-64
2021/10/02 10:00:37;;;;;;;6.10;2.40;;;;;;;17.84;59.49;100668.03;5045216;28;20090;-64
2021/10/02 10:03:06;;;;;;;7.90;2.30;;;;;;;17.96;59.10;100664.25;5048138;28;20059;-64
2021/10/02 10:05:38;;;;;;;6.28;2.08;;;;;;;18.27;58.44;100665.00;5047909;28;20080;-66
2021/10/02 10:08:08;;;;;;;20.27;2.95;;;;;;;18.40;57.71;100660.25;5054968;28;20710;-68
2021/10/02 10:10:38;;;;;;;3.97;2.15;;;;;;;18.42;58.29;100658.31;5055158;28;20481;-68
2021/10/02 10:13:14;;;;;;;4.72;1.90;;;;;;;18.56;57.55;100651.72;5049834;28;20534;-64
2021/10/02 10:15:45;;;;;;;4.03;2.65;;;;;;;18.56;57.98;100649.03;5051026;28;20450;-66
2021/10/02 10:18:15;;;;;;;6.10;2.63;;;;;;;18.56;57.86;100638.38;5049376;28;20079;-68
2021/10/02 10:20:51;;;;;;;5.35;2.05;;;;;;;18.63;57.38;100628.81;5035537;28;20083;-66
2021/10/02 10:23:33;;;;;;;4.97;2.58;;;;;;;18.63;57.38;100639.47;5033953;28;20127;-68
2021/10/02 10:26:02;;;;;;;4.13;2.28;;;;;;;18.64;57.26;100627.84;5052322;28;20075;-68
2021/10/02 10:28:32;;;;;;;7.03;2.38;;;;;;;18.67;56.85;100634.72;5031770;28;20136;-68
2021/10/02 10:31:15;;;;;;;8.02;1.90;;;;;;;18.55;56.92;100628.69;5048625;28;20137;-68
2021/10/02 10:33:47;;;;;;;4.00;1.88;;;;;;;18.49;58.00;100629.25;5052056;28;20525;-72
2021/10/02 10:36:16;;;;;;;5.03;2.17;;;;;;;18.65;57.41;100626.03;5055679;28;20068;-75
2021/10/02 10:38:43;;;;;;;3.30;1.77;;;;;;;18.46;56.97;100625.06;5032640;28;20053;-73
2021/10/02 10:41:13;;;;;;;3.13;2.05;;;;;;;18.49;56.90;100629.25;5033284;28;20079;-73
2021/10/02 10:43:41;;;;;;;8.30;2.00;;;;;;;18.34;57.20;100625.34;5036607;28;20044;-76
2021/10/02 10:46:11;;;;;;;5.55;2.00;;;;;;;18.45;56.36;100635.84;5050792;28;20180;-74
2021/10/02 10:48:38;;;;;;;7.97;1.90;;;;;;;18.31;56.55;100641.59;5059263;28;20052;-77
2021/10/02 10:51:11;;;;;;;3.58;1.67;;;;;;;18.39;56.47;100637.25;5056344;28;20045;-71
2021/10/02 10:53:50;;;;;;;6.95;2.10;;;;;;;18.35;56.54;100637.66;5054259;28;20096;-72
2021/10/02 10:56:35;;;;;;;2.85;1.45;;;;;;;18.40;57.18;100622.09;5054032;28;20049;-73
2021/10/02 10:59:03;;;;;;;3.15;1.42;;;;;;;18.60;57.05;100607.78;5045473;28;20136;-71
2021/10/02 11:01:33;;;;;;;4.97;1.80;;;;;;;18.70;56.50;100600.63;5058241;28;20622;-68
2021/10/02 11:04:00;;;;;;;3.85;1.90;;;;;;;18.91;55.93;100610.25;5055947;28;20081;-70
2021/10/02 11:06:57;;;;;;;5.85;1.50;;;;;;;18.82;56.07;100603.13;5047975;28;20054;-68
2021/10/02 11:09:43;;;;;;;3.70;1.35;;;;;;;18.72;57.68;100595.16;5022796;28;20144;-69
2021/10/02 11:12:10;;;;;;;;;;;;;;;18.74;58.11;100603.03;5048095;28;20064;-68
2021/10/02 11:14:46;;;;;;;5.45;1.75;;;;;;;18.79;57.44;100595.44;5050903;28;19924;-68
2021/10/02 11:17:16;;;;;;;4.88;1.83;;;;;;;18.69;58.64;100584.78;5064315;28;20076;-67
2021/10/02 11:19:46;;;;;;;6.80;1.70;;;;;;;18.78;58.93;100588.38;5051552;28;20100;-67
2021/10/02 11:23:03;;;;;;;3.03;1.80;;;;;;;18.83;59.26;100588.81;5057659;28;20093;-69
2021/10/02 11:25:30;;;;;;;5.38;1.90;;;;;;;18.89;58.83;100582.91;5049302;28;20100;-69
2021/10/02 11:28:20;;;;;;;4.75;2.13;;;;;;;18.97;57.93;100580.34;5049469;28;20757;-69
2021/10/02 11:30:49;;;;;;;2.83;1.80;;;;;;;19.07;58.08;100578.47;5049022;28;20049;-68
2021/10/02 11:33:43;;;;;;;2.95;1.75;;;;;;;19.18;58.26;100580.09;5031446;28;20061;-70
2021/10/02 11:36:31;;;;;;;5.43;2.20;;;;;;;19.22;57.88;100586.84;5044999;28;20044;-70
2021/10/02 11:39:25;;;;;;;6.13;2.13;;;;;;;19.08;58.34;100573.97;5051130;28;20090;-69
2021/10/02 11:41:57;;;;;;;5.55;1.75;;;;;;;18.97;59.00;100572.34;5052560;28;20063;-68
2021/10/02 11:44:36;;;;;;;6.38;2.38;;;;;;;18.85;60.48;100582.34;5048088;28;20102;-69
2021/10/02 11:47:34;;;;;;;6.30;1.92;;;;;;;18.82;59.86;100588.00;5053819;28;20064;-70
2021/10/02 11:50:28;;;;;;;2.60;1.63;;;;;;;19.09;58.89;100595.19;5037516;28;20077;-71
2021/10/02 11:52:55;;;;;;;4.25;2.13;;;;;;;19.02;59.59;100587.91;5053631;28;20153;-73
2021/10/02 11:55:35;;;;;;;4.35;1.90;;;;;;;19.08;58.81;100579.31;5044023;28;20040;-71
2021/10/02 11:58:11;;;;;;;7.53;2.08;;;;;;;19.15;57.47;100577.75;5043028;28;20491;-72
2021/10/02 12:00:38;;;;;;;3.88;2.00;;;;;;;19.15;57.67;100562.59;5046078;28;20045;-73
2021/10/02 12:03:06;;;;;;;5.05;1.85;;;;;;;19.28;58.19;100561.41;5050835;28;20111;-70
2021/10/02 12:05:34;;;;;;;3.90;1.70;;;;;;;19.37;58.34;100563.19;5042916;28;20148;-70
2021/10/02 12:08:02;;;;;;;3.15;1.55;;;;;;;19.45;57.79;100561.47;5055624;28;20052;-71
2021/10/02 12:10:29;;;;;;;4.47;2.03;;;;;;;19.41;56.60;100567.25;5036278;28;20139;-72
2021/10/02 12:13:19;;;;;;;3.30;1.98;;;;;;;19.34;57.10;100569.66;5036304;28;20130;-72
2021/10/02 12:15:47;;;;;;;4.18;2.38;;;;;;;19.56;56.50;100556.91;5011251;28;20068;-70
2021/10/02 12:18:14;;;;;;;7.63;2.20;;;;;;;19.69;55.84;100557.41;5040198;28;20109;-72
2021/10/02 12:20:42;;;;;;;3.83;1.85;;;;;;;19.67;55.01;100562.03;5052695;28;20036;-69
2021/10/02 12:23:11;;;;;;;4.20;2.28;;;;;;;19.56;55.06;100552.38;5055162;28;20105;-70
2021/10/02 12:25:39;;;;;;;6.53;1.85;;;;;;;19.60;54.49;100555.59;5032738;28;20068;-71
2021/10/02 12:28:07;;;;;;;4.47;1.70;;;;;;;19.53;54.49;100563.34;5022026;28;20036;-69
2021/10/02 12:30:34;;;;;;;6.85;2.42;;;;;;;19.50;53.73;100555.66;5055005;28;20104;-70
2021/10/02 12:33:03;;;;;;;7.15;2.05;;;;;;;19.37;53.39;100556.03;5053335;28;20131;-69